Time;durP1;ratioP1;P1;durP2;ratioP2;P2;SDS_P1;SDS_P2;PMS_P1;PMS_P2;Temp;Humidity;BMP_temperature;BMP_pressure;BME280_temperature;BME280_humidity;BME280_pressure;Samples;Min_cycle;Max_cycle;Signal;HPM_P1;HPM_P2
2024/03/30 00:02:06;;;;;;;74.20;12.00;;;;;;;10.79;78.00;96572.53;6292527;28;20209;-54
2024/03/30 00:05:08;;;;;;;67.00;11.80;;;;;;;10.76;79.95;96574.94;6294365;28;20609;-54
2024/03/30 00:08:10;;;;;;;68.87;12.23;;;;;;;10.72;80.07;96571.22;6291323;28;20194;-53
2024/03/30 00:11:11;;;;;;;63.37;12.13;;;;;;;10.63;82.47;96570.94;6300687;28;20566;-54
2024/03/30 00:14:12;;;;;;;78.40;12.60;;;;;;;10.64;79.85;96580.56;6318601;28;20838;-54
2024/03/30 00:17:13;;;;;;;74.83;11.80;;;;;;;10.50;82.32;96577.66;6299596;28;20195;-55
2024/03/30 00:20:14;;;;;;;57.27;10.47;;;;;;;10.51;82.38;96584.56;6298987;28;20610;-53
2024/03/30 00:23:15;;;;;;;81.17;12.77;;;;;;;10.44;84.51;96577.91;6304006;28;20255;-55
2024/03/30 00:26:16;;;;;;;60.07;11.77;;;;;;;10.32;85.98;96568.34;6304374;28;20198;-55
2024/03/30 00:29:17;;;;;;;50.47;10.20;;;;;;;10.35;87.06;96587.50;6290680;28;20206;-54
2024/03/30 00:32:22;;;;;;;60.03;11.50;;;;;;;10.55;87.15;96590.16;6294082;28;20197;-53
2024/03/30 00:35:23;;;;;;;55.23;10.30;;;;;;;10.41;86.89;96597.88;6301310;28;20197;-53
2024/03/30 00:38:26;;;;;;;57.93;11.50;;;;;;;10.23;89.10;96590.38;6296025;28;20201;-54
2024/03/30 00:41:27;;;;;;;56.60;11.07;;;;;;;10.30;89.61;96590.97;6289462;28;20259;-55
2024/03/30 00:44:28;;;;;;;66.90;11.50;;;;;;;10.10;87.74;96589.06;6292981;28;20610;-53
2024/03/30 00:47:29;;;;;;;62.90;11.83;;;;;;;10.04;89.27;96590.91;6297402;28;20734;-54
2024/03/30 00:50:30;;;;;;;77.10;13.40;;;;;;;9.99;88.62;96596.22;6273834;28;20280;-52
2024/03/30 00:53:31;;;;;;;71.23;13.23;;;;;;;9.93;88.19;96583.97;6290609;28;20676;-54
2024/03/30 00:56:32;;;;;;;81.10;13.83;;;;;;;9.91;88.14;96562.19;6294456;28;20701;-53
2024/03/30 00:59:35;;;;;;;77.43;13.00;;;;;;;9.80;87.68;96564.03;6290501;28;20197;-54
2024/03/30 01:02:38;;;;;;;77.23;12.73;;;;;;;9.74;89.88;96574.91;6298003;28;20251;-54
2024/03/30 01:05:39;;;;;;;73.43;13.47;;;;;;;9.77;86.77;96582.38;6299543;28;20202;-53
2024/03/30 01:08:40;;;;;;;89.93;13.67;;;;;;;9.77;86.34;96577.06;6292739;28;20185;-53
2024/03/30 01:11:42;;;;;;;83.93;14.07;;;;;;;9.66;89.33;96578.91;6292427;28;20275;-53
2024/03/30 01:14:43;;;;;;;91.43;14.80;;;;;;;9.70;87.79;96579.94;6290214;28;20186;-55
2024/03/30 01:17:46;;;;;;;84.60;14.10;;;;;;;9.75;87.86;96576.50;6299144;28;20579;-54
2024/03/30 01:20:50;;;;;;;79.40;14.37;;;;;;;9.72;87.18;96577.84;6297396;28;20196;-54
2024/03/30 01:23:52;;;;;;;88.93;17.03;;;;;;;9.67;85.71;96577.03;6287534;28;20599;-53
2024/03/30 01:26:57;;;;;;;78.00;14.00;;;;;;;9.65;87.63;96574.63;6303353;28;20238;-53
2024/03/30 01:30:09;;;;;;;85.87;15.30;;;;;;;9.69;88.90;96557.06;6304496;28;20201;-54
2024/03/30 01:33:10;;;;;;;83.97;14.23;;;;;;;9.57;89.14;96567.19;6278614;28;20193;-54
2024/03/30 01:36:11;;;;;;;93.93;15.90;;;;;;;9.56;86.43;96569.03;6300414;28;20238;-54
2024/03/30 01:39:12;;;;;;;86.20;15.23;;;;;;;9.63;85.43;96576.75;6309988;28;20189;-54
2024/03/30 01:42:13;;;;;;;81.50;15.63;;;;;;;9.59;88.16;96565.03;6309402;28;20590;-56
2024/03/30 01:45:15;;;;;;;97.13;14.63;;;;;;;9.59;87.73;96565.03;6307286;28;20192;-53
2024/03/30 01:48:17;;;;;;;81.30;15.50;;;;;;;9.64;88.51;96556.28;6296234;28;20204;-53
2024/03/30 01:51:18;;;;;;;83.57;14.67;;;;;;;9.72;86.26;96556.56;6299873;28;20199;-53
2024/03/30 01:54:21;;;;;;;88.10;14.33;;;;;;;9.80;87.66;96565.88;6311826;28;20189;-55
2024/03/30 01:57:24;;;;;;;86.93;15.30;;;;;;;9.59;87.21;96570.34;6302838;28;20181;-54
2024/03/30 02:00:26;;;;;;;88.73;13.67;;;;;;;9.59;89.26;96567.69;6293530;28;20242;-53
2024/03/30 02:03:33;;;;;;;78.00;15.23;;;;;;;9.63;87.62;96567.97;6279695;28;20213;-55
2024/03/30 02:06:34;;;;;;;71.53;13.70;;;;;;;9.48;87.69;96550.13;6293815;28;20698;-54
2024/03/30 02:09:36;;;;;;;92.77;15.07;;;;;;;9.65;87.41;96581.78;6277047;28;20213;-54
2024/03/30 02:12:39;;;;;;;79.03;14.27;;;;;;;9.54;89.62;96583.63;6293342;28;20197;-53
2024/03/30 02:15:40;;;;;;;87.83;14.67;;;;;;;9.46;86.69;96581.50;6295644;28;20614;-55
2024/03/30 02:18:41;;;;;;;77.80;13.40;;;;;;;9.47;88.32;96578.56;6293501;28;20704;-54
2024/03/30 02:21:42;;;;;;;72.03;13.43;;;;;;;9.51;87.68;96586.84;6293428;28;20572;-54
2024/03/30 02:24:44;;;;;;;83.70;12.77;;;;;;;9.65;85.93;96584.47;6292791;28;20253;-55
2024/03/30 02:27:46;;;;;;;82.73;14.17;;;;;;;9.72;85.00;96596.47;6293559;28;20193;-53
2024/03/30 02:30:47;;;;;;;67.37;12.43;;;;;;;9.64;87.20;96588.19;6310919;28;20258;-53
2024/03/30 02:33:48;;;;;;;82.10;14.00;;;;;;;9.66;85.42;96581.56;6313529;28;20192;-54
2024/03/30 02:36:50;;;;;;;85.10;13.67;;;;;;;9.70;85.86;96584.47;6305575;28;20243;-54
2024/03/30 02:39:51;;;;;;;92.33;13.90;;;;;;;9.70;85.52;96574.63;6298652;28;20197;-54
2024/03/30 02:42:52;;;;;;;81.63;12.77;;;;;;;9.75;86.53;96565.84;6295813;28;20216;-53
2024/03/30 02:45:54;;;;;;;71.37;13.50;;;;;;;9.70;86.35;96573.84;6299568;28;20534;-52
2024/03/30 02:48:55;;;;;;;75.93;11.90;;;;;;;9.89;87.42;96572.28;6279318;28;20580;-52
2024/03/30 02:51:56;;;;;;;66.57;12.40;;;;;;;9.94;87.57;96566.16;6292651;28;20245;-54
2024/03/30 02:54:57;;;;;;;64.00;11.13;;;;;;;9.82;89.17;96553.13;6293604;28;20194;-53
2024/03/30 02:57:58;;;;;;;69.67;12.27;;;;;;;9.65;88.31;96571.97;6275721;28;20212;-55
2024/03/30 03:00:59;;;;;;;69.40;11.63;;;;;;;9.57;89.24;96567.19;6302442;28;20197;-54
2024/03/30 03:04:00;;;;;;;96.00;14.90;;;;;;;9.55;89.49;96558.66;6305242;28;20195;-54
2024/03/30 03:07:02;;;;;;;68.83;13.47;;;;;;;9.98;88.34;96561.91;6301781;28;20693;-54
2024/03/30 03:10:04;;;;;;;70.17;11.77;;;;;;;9.79;86.20;96565.06;6296430;28;20672;-54
2024/03/30 03:13:05;;;;;;;81.07;12.93;;;;;;;9.62;89.61;96567.19;6302390;28;20220;-54
2024/03/30 03:16:06;;;;;;;69.03;12.63;;;;;;;9.65;87.23;96576.47;6299282;28;20646;-53
2024/03/30 03:19:07;;;;;;;64.10;12.23;;;;;;;9.78;89.49;96570.66;6291561;28;20724;-52
2024/03/30 03:22:08;;;;;;;72.60;11.23;;;;;;;9.77;85.83;96569.06;6292098;28;20817;-53
2024/03/30 03:25:09;;;;;;;75.73;13.70;;;;;;;9.78;85.40;96575.97;6289362;28;20264;-53
2024/03/30 03:28:10;;;;;;;56.07;10.80;;;;;;;9.69;88.33;96574.91;6293584;28;20616;-54
2024/03/30 03:31:11;;;;;;;62.60;12.77;;;;;;;9.62;90.75;96577.03;6291848;28;20556;-53
2024/03/30 03:34:12;;;;;;;65.07;12.37;;;;;;;9.49;87.50;96559.69;6295101;28;20200;-54
2024/03/30 03:37:14;;;;;;;60.30;11.30;;;;;;;9.50;91.43;96578.03;6294513;28;20188;-54
2024/03/30 03:40:15;;;;;;;68.53;11.93;;;;;;;9.46;88.69;96568.22;6281278;28;20214;-55
2024/03/30 03:43:16;;;;;;;70.60;10.93;;;;;;;9.51;86.58;96570.88;6300111;28;20287;-55
2024/03/30 03:46:17;;;;;;;57.23;11.37;;;;;;;9.52;86.67;96577.78;6299051;28;20654;-53
2024/03/30 03:49:18;;;;;;;64.03;10.20;;;;;;;9.52;87.20;96586.56;6292512;28;20274;-54
2024/03/30 03:52:20;;;;;;;72.13;11.23;;;;;;;9.46;89.52;96589.47;6306134;28;20730;-53
2024/03/30 03:55:21;;;;;;;66.77;10.40;;;;;;;9.45;89.07;96577.22;6305286;28;20879;-51
2024/03/30 03:58:22;;;;;;;65.00;11.83;;;;;;;9.47;87.10;96575.91;6283421;28;20207;-53
2024/03/30 04:01:23;;;;;;;69.23;12.77;;;;;;;9.53;86.36;96574.06;6295055;28;20201;-54
2024/03/30 04:04:25;;;;;;;62.10;11.80;;;;;;;9.53;86.20;96580.19;6287425;28;20183;-54
2024/03/30 04:07:26;;;;;;;68.83;12.43;;;;;;;9.66;86.21;96583.41;6304731;28;20188;-53
2024/03/30 04:10:27;;;;;;;66.00;12.27;;;;;;;9.57;86.14;96581.25;6293961;28;20283;-55
2024/03/30 04:13:29;;;;;;;65.10;11.37;;;;;;;9.52;87.63;96583.13;6296393;28;20191;-55
2024/03/30 04:16:30;;;;;;;73.40;10.53;;;;;;;9.43;86.14;96590.00;6319142;28;20813;-53
2024/03/30 04:19:31;;;;;;;63.63;13.30;;;;;;;9.43;86.62;96588.13;6309509;28;20272;-57
2024/03/30 04:22:32;;;;;;;71.03;11.03;;;;;;;9.39;86.13;96584.38;6302904;28;20580;-53
2024/03/30 04:25:34;;;;;;;73.00;11.27;;;;;;;9.46;85.36;96574.31;6298056;28;20609;-53
2024/03/30 04:28:35;;;;;;;63.13;10.63;;;;;;;9.36;88.57;96582.28;6295627;28;20219;-54
2024/03/30 04:31:36;;;;;;;66.90;10.97;;;;;;;9.37;86.62;96588.38;6290645;28;20681;-53
2024/03/30 04:34:37;;;;;;;56.90;10.23;;;;;;;9.34;86.30;96568.44;6290501;28;20567;-52
2024/03/30 04:37:38;;;;;;;63.10;10.57;;;;;;;9.40;87.83;96582.53;6301236;28;20209;-53
2024/03/30 04:40:40;;;;;;;53.53;11.63;;;;;;;9.37;85.10;96583.88;6291270;28;20683;-54
2024/03/30 04:43:41;;;;;;;74.03;12.53;;;;;;;9.33;87.32;96582.78;6290265;28;20271;-54
2024/03/30 04:46:42;;;;;;;64.70;11.83;;;;;;;9.33;85.78;96582.00;6283810;28;20206;-53
2024/03/30 04:49:43;;;;;;;63.90;10.87;;;;;;;9.37;86.84;96601.66;6301233;28;20207;-55
2024/03/30 04:52:44;;;;;;;67.57;11.80;;;;;;;9.23;87.52;96601.34;6273951;28;20199;-52
2024/03/30 04:55:55;;;;;;;64.90;11.13;;;;;;;9.25;86.31;96597.34;6291319;28;20196;-54
2024/03/30 04:58:56;;;;;;;54.80;12.03;;;;;;;9.41;85.37;96597.41;6303910;28;20189;-53
2024/03/30 05:01:57;;;;;;;60.80;11.90;;;;;;;9.53;88.35;96603.31;6306673;28;20207;-53
2024/03/30 05:04:59;;;;;;;62.40;10.90;;;;;;;9.48;85.08;96611.28;6296145;28;20332;-54
2024/03/30 05:08:00;;;;;;;63.90;10.80;;;;;;;9.49;87.15;96607.56;6295787;28;20203;-54
2024/03/30 05:11:01;;;;;;;65.63;10.30;;;;;;;9.41;85.53;96606.22;6309451;28;20194;-54
2024/03/30 05:14:02;;;;;;;53.47;10.30;;;;;;;9.50;88.02;96609.13;6309384;28;20676;-53
2024/03/30 05:17:03;;;;;;;68.83;11.40;;;;;;;9.48;84.99;96603.28;6301346;28;20187;-54
2024/03/30 05:23:29;;;;;;;64.40;10.50;;;;;;;9.72;87.53;96607.09;6298812;28;20195;-53
2024/03/30 05:26:31;;;;;;;44.90;10.23;;;;;;;9.34;86.57;96583.56;6291555;28;20196;-54
2024/03/30 05:29:32;;;;;;;56.00;10.10;;;;;;;9.54;89.66;96599.59;6297982;28;20193;-52
2024/03/30 05:32:33;;;;;;;62.90;11.43;;;;;;;9.53;88.61;96608.63;6293728;28;20704;-53
2024/03/30 05:35:36;;;;;;;62.50;10.60;;;;;;;9.56;85.93;96605.47;6294621;28;20203;-54
2024/03/30 05:38:37;;;;;;;57.83;9.80;;;;;;;9.75;82.30;96605.75;6277865;28;20611;-54
2024/03/30 05:41:38;;;;;;;61.77;11.03;;;;;;;9.98;81.08;96615.91;6297328;28;20577;-54
2024/03/30 05:44:39;;;;;;;63.20;10.33;;;;;;;10.11;81.66;96616.47;6301191;28;20583;-54
2024/03/30 05:47:40;;;;;;;49.60;10.80;;;;;;;10.06;86.51;96611.94;6294997;28;20225;-54
2024/03/30 05:50:41;;;;;;;59.47;8.97;;;;;;;10.50;83.46;96611.47;6294044;28;20200;-51
2024/03/30 05:53:46;;;;;;;53.23;10.37;;;;;;;10.47;82.94;96610.13;6297300;28;20598;-53
2024/03/30 05:56:47;;;;;;;62.17;10.47;;;;;;;10.21;86.69;96609.28;6294004;28;20278;-52
2024/03/30 05:59:48;;;;;;;73.07;10.77;;;;;;;10.04;87.73;96603.41;6296129;28;20212;-55
2024/03/30 06:02:49;;;;;;;67.17;10.70;;;;;;;10.00;85.79;96605.00;6275669;28;20213;-53
2024/03/30 06:05:50;;;;;;;53.13;10.80;;;;;;;10.03;86.08;96610.59;6296958;28;20201;-54
2024/03/30 06:08:51;;;;;;;60.43;10.93;;;;;;;10.32;86.79;96604.81;6304544;28;20225;-53
2024/03/30 06:11:52;;;;;;;59.13;9.77;;;;;;;10.52;87.08;96604.00;6296768;28;20185;-53
2024/03/30 06:14:53;;;;;;;47.43;8.20;;;;;;;10.38;87.06;96603.72;6293823;28;20197;-53
2024/03/30 06:17:54;;;;;;;55.20;10.50;;;;;;;10.61;88.27;96604.25;6293037;28;20209;-55
2024/03/30 06:20:55;;;;;;;65.03;10.80;;;;;;;10.27;88.03;96605.59;6297868;28;20533;-51
2024/03/30 06:23:56;;;;;;;51.50;9.77;;;;;;;10.46;87.27;96616.53;6299652;28;20220;-53
2024/03/30 06:26:57;;;;;;;55.87;9.20;;;;;;;10.54;89.09;96616.00;6294340;28;20672;-54
2024/03/30 06:29:59;;;;;;;59.67;11.00;;;;;;;10.37;88.73;96612.00;6303163;28;20208;-54
2024/03/30 06:33:00;;;;;;;46.77;8.90;;;;;;;10.42;86.93;96610.13;6299444;28;20201;-52
2024/03/30 06:36:01;;;;;;;48.53;10.17;;;;;;;10.46;88.74;96600.53;6300516;28;20369;-52
2024/03/30 06:39:02;;;;;;;50.40;8.80;;;;;;;10.49;87.15;96601.84;6301464;28;20224;-54
2024/03/30 06:45:23;;;;;;;45.80;8.97;;;;;;;10.65;90.42;96608.78;6299623;28;20198;-53
2024/03/30 06:48:24;;;;;;;60.27;9.30;;;;;;;10.61;90.38;96601.59;6303831;28;20196;-52
2024/03/30 06:51:25;;;;;;;52.53;9.17;;;;;;;10.60;88.03;96614.13;6298345;28;20228;-54
2024/03/30 06:54:26;;;;;;;43.07;8.83;;;;;;;10.84;91.11;96612.50;6292477;28;20657;-51
2024/03/30 06:57:28;;;;;;;39.40;7.70;;;;;;;10.73;87.84;96620.75;6294197;28;20193;-54
2024/03/30 07:00:29;;;;;;;47.77;8.17;;;;;;;10.73;90.54;96623.41;6292238;28;20208;-52
2024/03/30 07:03:30;;;;;;;33.37;8.07;;;;;;;10.83;92.60;96621.53;6293634;28;20192;-54
2024/03/30 07:06:31;;;;;;;43.43;7.67;;;;;;;10.72;88.13;96614.63;6298400;28;20240;-53
2024/03/30 07:09:32;;;;;;;43.47;7.90;;;;;;;10.73;87.99;96613.56;6309277;28;20197;-53
2024/03/30 07:12:33;;;;;;;41.17;7.90;;;;;;;10.78;90.20;96632.19;6291827;28;20196;-53
2024/03/30 07:15:35;;;;;;;46.10;8.80;;;;;;;10.84;89.79;96620.47;6298509;28;20245;-53
2024/03/30 07:18:36;;;;;;;39.80;8.23;;;;;;;10.68;89.15;96604.78;6294880;28;20721;-51
2024/03/30 07:21:37;;;;;;;46.67;7.93;;;;;;;10.87;87.61;96618.34;6289575;28;20296;-53
2024/03/30 07:24:39;;;;;;;48.77;8.50;;;;;;;11.07;83.63;96615.63;6307076;28;20186;-53
2024/03/30 07:27:40;;;;;;;45.70;8.33;;;;;;;11.11;85.06;96612.16;6302097;28;20667;-53
2024/03/30 07:30:43;;;;;;;36.73;7.33;;;;;;;11.19;84.79;96616.13;6296339;28;20277;-53
2024/03/30 07:33:45;;;;;;;30.83;6.20;;;;;;;11.27;85.04;96625.41;6302039;28;20190;-54
2024/03/30 07:36:46;;;;;;;41.50;7.57;;;;;;;11.43;83.99;96624.31;6274419;28;20672;-54
2024/03/30 07:39:47;;;;;;;41.33;8.43;;;;;;;11.53;81.21;96626.94;6299100;28;20251;-55
2024/03/30 07:42:48;;;;;;;46.87;7.77;;;;;;;11.77;83.54;96632.44;6297492;28;20198;-55
2024/03/30 07:45:49;;;;;;;41.10;7.33;;;;;;;11.85;81.64;96636.41;6302651;28;20189;-53
2024/03/30 07:48:50;;;;;;;39.50;7.27;;;;;;;11.97;82.60;96631.56;6309762;28;20185;-52
2024/03/30 07:51:51;;;;;;;47.97;8.27;;;;;;;12.19;81.54;96639.16;6295048;28;20230;-55
2024/03/30 07:54:52;;;;;;;32.63;6.87;;;;;;;12.16;78.50;96636.22;6299183;28;20186;-55
2024/03/30 07:57:53;;;;;;;49.30;7.83;;;;;;;12.37;81.46;96649.19;6277222;28;20670;-55
2024/03/30 08:00:56;;;;;;;38.27;7.70;;;;;;;12.30;82.93;96635.31;6290893;28;20285;-54
2024/03/30 08:03:57;;;;;;;37.60;8.17;;;;;;;12.38;83.91;96656.09;6306097;28;20198;-54
2024/03/30 08:06:58;;;;;;;43.00;7.87;;;;;;;12.56;80.98;96651.16;6290523;28;20198;-55
2024/03/30 08:09:59;;;;;;;42.70;7.67;;;;;;;12.61;81.00;96659.13;6291452;28;20217;-55
2024/03/30 08:13:00;;;;;;;47.00;7.30;;;;;;;12.56;77.16;96659.16;6291148;28;20191;-54
2024/03/30 08:16:01;;;;;;;34.47;7.03;;;;;;;12.62;77.28;96658.88;6291393;28;20186;-55
2024/03/30 08:19:04;;;;;;;49.03;8.27;;;;;;;12.63;79.15;96655.09;6290220;28;20226;-54
2024/03/30 08:22:05;;;;;;;41.23;6.10;;;;;;;12.61;79.23;96659.13;6292826;28;20206;-53
2024/03/30 08:25:06;;;;;;;43.97;6.70;;;;;;;12.78;80.92;96661.41;6291872;28;20200;-53
2024/03/30 08:28:10;;;;;;;40.77;7.30;;;;;;;12.71;83.27;96655.56;6290487;28;20186;-54
2024/03/30 08:31:11;;;;;;;41.33;7.20;;;;;;;12.59;81.68;96656.75;6290310;28;20186;-53
2024/03/30 08:34:12;;;;;;;43.73;6.67;;;;;;;12.56;83.79;96661.84;6289800;28;20186;-55
2024/03/30 08:37:13;;;;;;;36.20;6.40;;;;;;;12.57;79.97;96655.44;6290762;28;20209;-54
2024/03/30 08:40:14;;;;;;;28.30;6.50;;;;;;;12.80;79.84;96660.03;6288510;28;20202;-55
2024/03/30 08:43:16;;;;;;;40.07;7.33;;;;;;;12.75;78.01;96660.06;6295099;28;20209;-52
2024/03/30 08:46:17;;;;;;;35.83;7.00;;;;;;;12.79;79.82;96661.13;6290298;28;20203;-53
2024/03/30 08:49:18;;;;;;;36.47;7.03;;;;;;;12.90;80.95;96662.63;6294257;28;20557;-54
2024/03/30 08:52:19;;;;;;;35.40;7.37;;;;;;;12.79;81.50;96654.97;6290539;28;20194;-55
2024/03/30 08:55:20;;;;;;;34.87;6.20;;;;;;;12.91;82.18;96656.22;6290032;28;20248;-54
2024/03/30 08:58:21;;;;;;;34.77;6.13;;;;;;;12.85;81.61;96664.53;6295834;28;20201;-55
2024/03/30 09:01:23;;;;;;;28.80;6.43;;;;;;;12.97;81.53;96656.97;6292928;28;20562;-54
2024/03/30 09:04:24;;;;;;;36.70;7.10;;;;;;;13.03;81.68;96660.38;6289272;28;20190;-53
2024/03/30 09:07:25;;;;;;;32.93;6.27;;;;;;;13.16;83.35;96646.34;6277586;28;20196;-53
2024/03/30 09:10:26;;;;;;;36.47;6.80;;;;;;;13.10;81.12;96647.47;6283060;28;20198;-50
2024/03/30 09:13:27;;;;;;;31.03;5.80;;;;;;;13.02;83.72;96650.75;6290119;28;20179;-54
2024/03/30 09:16:28;;;;;;;25.97;5.03;;;;;;;13.05;83.17;96650.19;6289552;28;20193;-54
2024/03/30 09:19:30;;;;;;;36.70;6.40;;;;;;;13.22;83.80;96658.59;6290321;28;20240;-55
2024/03/30 09:22:31;;;;;;;35.10;7.10;;;;;;;13.15;83.40;96645.56;6289254;28;20252;-54
2024/03/30 09:25:32;;;;;;;39.00;6.77;;;;;;;13.18;81.35;96653.00;6289877;28;20194;-55
2024/03/30 09:28:33;;;;;;;32.83;6.03;;;;;;;13.57;82.71;96646.72;6289651;28;20217;-54
2024/03/30 09:31:36;;;;;;;30.30;6.47;;;;;;;13.31;80.39;96645.41;6301832;28;20197;-54
2024/03/30 09:34:37;;;;;;;38.60;6.33;;;;;;;13.48;84.46;96645.75;6304192;28;20199;-54
2024/03/30 09:37:38;;;;;;;34.03;6.30;;;;;;;13.28;82.25;96646.75;6295783;28;20192;-54
2024/03/30 09:40:54;;;;;;;42.77;6.23;;;;;;;13.36;85.29;96645.34;6274796;28;20218;-53
2024/03/30 09:43:55;;;;;;;30.30;5.57;;;;;;;13.27;86.16;96636.38;6291158;28;20218;-53
2024/03/30 09:46:57;;;;;;;39.73;6.07;;;;;;;13.15;83.03;96626.84;6295731;28;20719;-55
2024/03/30 09:50:02;;;;;;;30.10;5.67;;;;;;;13.37;84.53;96633.56;6301009;28;20198;-53
2024/03/30 09:53:06;;;;;;;32.67;6.77;;;;;;;13.29;85.77;96624.28;6297051;28;20206;-55
2024/03/30 09:56:08;;;;;;;36.53;6.23;;;;;;;13.34;82.44;96626.91;6295861;28;20717;-54
2024/03/30 09:59:11;;;;;;;25.40;5.83;;;;;;;13.37;83.46;96628.22;6292687;28;20186;-53
2024/03/30 10:02:12;;;;;;;33.37;5.23;;;;;;;13.32;83.98;96620.25;6296690;28;20217;-54
2024/03/30 10:05:14;;;;;;;31.73;6.63;;;;;;;13.31;87.61;96616.78;6301025;28;20239;-54
2024/03/30 10:08:21;;;;;;;37.40;6.23;;;;;;;13.50;83.71;96616.84;6297856;28;20554;-53
2024/03/30 10:11:22;;;;;;;39.97;6.57;;;;;;;13.64;85.26;96620.41;6279973;28;20209;-52
2024/03/30 10:14:31;;;;;;;43.13;6.97;;;;;;;13.49;80.47;96599.16;6297256;28;20203;-55
2024/03/30 10:17:32;;;;;;;32.23;5.83;;;;;;;13.62;76.98;96587.78;6293206;28;20191;-53
2024/03/30 10:20:35;;;;;;;42.30;5.80;;;;;;;14.02;81.24;96592.84;6293155;28;20234;-55
2024/03/30 10:23:36;;;;;;;46.93;7.03;;;;;;;13.94;80.61;96592.44;6293769;28;20555;-53
2024/03/30 10:26:38;;;;;;;37.00;6.27;;;;;;;13.60;79.85;96599.88;6297021;28;20248;-53
2024/03/30 10:29:43;;;;;;;28.20;5.60;;;;;;;13.63;79.29;96604.63;6304201;28;20198;-53
2024/03/30 10:32:45;;;;;;;35.80;5.70;;;;;;;13.66;81.91;96588.78;6298230;28;20194;-52
2024/03/30 10:35:49;;;;;;;24.90;5.13;;;;;;;13.72;81.60;96588.72;6295066;28;20192;-55
2024/03/30 10:38:50;;;;;;;36.90;5.60;;;;;;;13.67;80.66;96573.53;6299396;28;20194;-52
2024/03/30 10:41:55;;;;;;;36.80;6.17;;;;;;;14.09;73.83;96582.59;6302431;28;20593;-55
2024/03/30 10:44:58;;;;;;;45.03;6.83;;;;;;;14.10;76.10;96574.25;6296739;28;20197;-54
2024/03/30 10:47:59;;;;;;;31.23;5.90;;;;;;;14.19;73.42;96567.16;6296330;28;20205;-54
2024/03/30 10:51:02;;;;;;;29.90;5.67;;;;;;;14.19;74.07;96567.16;6276202;28;20202;-54
2024/03/30 10:54:05;;;;;;;29.37;6.40;;;;;;;14.11;72.76;96567.00;6284903;28;20198;-53
2024/03/30 10:57:06;;;;;;;31.23;5.93;;;;;;;14.14;75.17;96577.16;6303860;28;20275;-53
2024/03/30 11:00:10;;;;;;;26.37;5.43;;;;;;;14.16;75.74;96581.13;6280791;28;20205;-54
2024/03/30 11:03:13;;;;;;;35.83;5.97;;;;;;;14.14;77.73;96580.63;6293015;28;20207;-54
2024/03/30 11:06:15;;;;;;;41.43;7.47;;;;;;;14.06;71.34;96583.94;6298028;28;20559;-53
2024/03/30 11:09:17;;;;;;;34.23;6.80;;;;;;;14.32;70.98;96586.22;6298836;28;20196;-54
2024/03/30 11:12:18;;;;;;;31.83;6.53;;;;;;;14.52;60.38;96572.53;6298797;28;20187;-55
2024/03/30 11:15:23;;;;;;;24.70;6.07;;;;;;;14.68;61.73;96581.13;6296868;28;20198;-55
2024/03/30 11:18:37;;;;;;;32.57;6.00;;;;;;;14.96;56.36;96566.63;6278213;28;20234;-52
2024/03/30 11:21:47;;;;;;;45.77;7.47;;;;;;;15.14;52.48;96546.19;6292582;28;20410;-54
2024/03/30 11:24:57;;;;;;;36.80;7.03;;;;;;;15.60;57.94;96542.53;6299922;28;20195;-54
2024/03/30 11:28:34;;;;;;;33.67;6.13;;;;;;;15.60;56.75;96534.50;6290205;28;20197;-52
2024/03/30 11:32:12;;;;;;;35.27;6.93;;;;;;;15.73;51.94;96535.59;6291013;28;20270;-53
2024/03/30 11:35:19;;;;;;;45.73;7.00;;;;;;;15.76;59.34;96534.19;6201458;28;20224;-56
2024/03/30 11:38:24;;;;;;;32.03;6.20;;;;;;;15.71;55.83;96533.22;6170126;28;20217;-54
2024/03/30 11:41:25;;;;;;;37.77;6.27;;;;;;;15.67;64.36;96515.34;6198602;28;20201;-54
2024/03/30 11:44:28;;;;;;;41.27;7.27;;;;;;;16.02;52.06;96529.03;6219593;28;20210;-51
2024/03/30 11:47:30;;;;;;;35.97;6.70;;;;;;;16.15;53.80;96509.38;6214453;28;20221;-54
2024/03/30 11:50:32;;;;;;;46.13;7.23;;;;;;;16.54;48.79;96499.78;6208654;28;20205;-55
2024/03/30 11:53:36;;;;;;;36.67;6.63;;;;;;;16.85;50.95;96486.38;6220709;28;20242;-55
2024/03/30 11:56:37;;;;;;;49.97;7.37;;;;;;;17.18;47.11;96484.88;6210195;28;20209;-54
2024/03/30 11:59:40;;;;;;;66.00;9.13;;;;;;;17.95;42.40;96466.41;6207203;28;20204;-55
2024/03/30 12:02:41;;;;;;;62.20;9.37;;;;;;;18.81;37.92;96476.97;6216524;28;20228;-55
2024/03/30 12:05:52;;;;;;;68.97;10.87;;;;;;;19.57;35.48;96497.69;6200259;28;20199;-54
2024/03/30 12:08:53;;;;;;;65.60;10.10;;;;;;;19.93;35.53;96493.63;6194967;28;20204;-53
2024/03/30 12:12:23;;;;;;;56.00;9.57;;;;;;;20.21;36.40;96504.69;6288993;28;20206;-53
2024/03/30 12:15:28;;;;;;;74.87;10.70;;;;;;;20.55;34.59;96511.69;6312484;28;20187;-54
2024/03/30 12:18:29;;;;;;;54.80;10.87;;;;;;;20.81;31.52;96513.31;6297072;28;20227;-54
2024/03/30 12:21:31;;;;;;;70.97;11.37;;;;;;;20.80;34.11;96512.53;6290650;28;20247;-53
2024/03/30 12:24:33;;;;;;;50.80;9.23;;;;;;;20.84;33.84;96518.84;6303255;28;20194;-55
2024/03/30 12:27:34;;;;;;;75.57;11.77;;;;;;;20.95;36.11;96531.94;6297211;28;20185;-55
2024/03/30 12:30:54;;;;;;;70.00;11.07;;;;;;;20.97;32.95;96510.72;6298619;28;20592;-54
2024/03/30 12:33:55;;;;;;;65.17;10.60;;;;;;;21.09;35.53;96518.88;6288587;28;20226;-55
2024/03/30 12:36:57;;;;;;;65.37;11.30;;;;;;;21.26;33.63;96526.75;6311279;28;20608;-55
2024/03/30 12:39:59;;;;;;;73.57;11.43;;;;;;;21.46;34.36;96532.41;6298697;28;20190;-54
2024/03/30 12:43:02;;;;;;;68.80;10.93;;;;;;;21.45;35.31;96528.13;6299324;28;20205;-56
2024/03/30 12:46:03;;;;;;;64.90;11.50;;;;;;;21.46;33.93;96524.28;6310968;28;20197;-53
2024/03/30 12:49:04;;;;;;;61.80;10.50;;;;;;;21.69;35.15;96521.91;6297078;28;20198;-54
2024/03/30 12:52:08;;;;;;;78.93;10.83;;;;;;;21.98;33.91;96518.09;6298267;28;20197;-55
2024/03/30 12:55:09;;;;;;;81.37;11.83;;;;;;;22.01;33.61;96511.97;6292967;28;20192;-53
2024/03/30 12:58:10;;;;;;;62.27;11.97;;;;;;;22.05;35.02;96493.88;6292388;28;20196;-53
2024/03/30 13:01:11;;;;;;;62.27;11.50;;;;;;;22.14;33.44;96483.69;6290940;28;20190;-55
2024/03/30 13:04:12;;;;;;;59.90;11.63;;;;;;;22.20;33.60;96493.16;6293400;28;20271;-55
2024/03/30 13:07:16;;;;;;;61.33;10.13;;;;;;;22.33;33.49;96474.91;6301655;28;20201;-54
2024/03/30 13:10:17;;;;;;;65.20;11.77;;;;;;;22.32;32.82;96457.06;6298190;28;20195;-54
2024/03/30 13:13:18;;;;;;;70.30;11.33;;;;;;;22.29;33.19;96458.53;6290855;28;20767;-54
2024/03/30 13:16:22;;;;;;;62.63;11.17;;;;;;;22.22;33.01;96439.38;6290225;28;20273;-54
2024/03/30 13:19:23;;;;;;;66.33;11.27;;;;;;;22.25;33.21;96454.94;6289671;28;20505;-56
2024/03/30 13:22:24;;;;;;;63.63;12.23;;;;;;;22.20;33.98;96443.53;6294260;28;20603;-55
2024/03/30 13:25:25;;;;;;;71.20;10.70;;;;;;;22.20;33.77;96465.25;6313898;28;20183;-55
2024/03/30 13:28:30;;;;;;;74.50;11.77;;;;;;;22.07;33.63;96445.50;6294387;28;20221;-54
2024/03/30 13:31:31;;;;;;;61.30;10.43;;;;;;;21.94;33.67;96443.97;6298902;28;20186;-56
2024/03/30 13:34:33;;;;;;;61.53;11.77;;;;;;;21.85;33.56;96442.19;6294315;28;20196;-55
2024/03/30 13:37:35;;;;;;;70.67;11.23;;;;;;;21.77;35.33;96435.03;6294381;28;20194;-54
2024/03/30 13:40:37;;;;;;;71.27;10.90;;;;;;;21.78;34.12;96444.72;6292111;28;20198;-55
2024/03/30 13:43:39;;;;;;;69.97;10.80;;;;;;;21.74;35.45;96449.25;6294435;28;20252;-55
2024/03/30 13:46:40;;;;;;;68.57;11.13;;;;;;;21.78;33.81;96431.16;6301277;28;20209;-53
2024/03/30 13:49:41;;;;;;;70.00;10.70;;;;;;;21.79;33.78;96430.03;6295890;28;20182;-54
2024/03/30 13:52:42;;;;;;;73.10;11.83;;;;;;;21.70;34.03;96436.72;6293603;28;20186;-55
2024/03/30 13:55:44;;;;;;;63.17;11.20;;;;;;;21.59;35.40;96418.25;6291311;28;20201;-55
2024/03/30 13:58:45;;;;;;;77.97;11.60;;;;;;;21.55;33.21;96411.94;6296857;28;20248;-55
2024/03/30 14:01:46;;;;;;;66.27;10.03;;;;;;;21.55;35.03;96409.22;6313962;28;20198;-55
2024/03/30 14:04:47;;;;;;;72.00;11.70;;;;;;;21.65;35.39;96416.06;6294685;28;20194;-55
2024/03/30 14:07:49;;;;;;;62.70;11.13;;;;;;;21.68;35.38;96409.97;6293412;28;20210;-55
2024/03/30 14:10:50;;;;;;;73.03;11.27;;;;;;;21.71;33.31;96403.06;6293316;28;20612;-56
2024/03/30 14:13:51;;;;;;;70.87;12.00;;;;;;;21.64;32.52;96396.31;6295912;28;20174;-53